createdAt,value
2022-11-22T00:00:44.841Z,98496.00
2022-11-22T00:03:12.193Z,98488.97
2022-11-22T00:05:39.699Z,98481.97
2022-11-22T00:08:07.339Z,98475.88
2022-11-22T00:10:34.778Z,98471.56
2022-11-22T00:13:02.632Z,98464.66
2022-11-22T00:15:30.413Z,98466.38
2022-11-22T00:17:58.102Z,98459.38
2022-11-22T00:20:25.536Z,98454.19
2022-11-22T00:22:52.722Z,98444.56
2022-11-22T00:25:19.949Z,98438.34
2022-11-22T00:27:47.092Z,98431.38
2022-11-22T00:30:14.290Z,98432.16
2022-11-22T00:32:41.654Z,98426.06
2022-11-22T00:35:11.977Z,98423.53
2022-11-22T00:37:39.362Z,98416.63
2022-11-22T00:40:07.598Z,98420.22
2022-11-22T00:42:34.981Z,98414.97
2022-11-22T00:45:02.128Z,98405.28
2022-11-22T00:47:29.244Z,98392.38
2022-11-22T00:49:56.377Z,98395.03
2022-11-22T00:52:23.543Z,98389.84
2022-11-22T00:54:54.803Z,98378.38
2022-11-22T00:57:23.079Z,98369.78
2022-11-22T00:59:50.501Z,98374.13
2022-11-22T01:02:17.783Z,98375.09
2022-11-22T01:04:45.102Z,98368.28
2022-11-22T01:07:12.453Z,98358.69
2022-11-22T01:09:39.942Z,98355.25
2022-11-22T01:12:07.945Z,98348.22
2022-11-22T01:14:35.170Z,98345.56
2022-11-22T01:17:02.634Z,98337.78
2022-11-22T01:19:30.200Z,98338.69
2022-11-22T01:21:57.872Z,98337.91
2022-11-22T01:24:25.186Z,98334.47
2022-11-22T01:26:52.460Z,98337.19
2022-11-22T01:29:22.500Z,98336.38
2022-11-22T01:31:49.719Z,98322.50
2022-11-22T01:34:16.945Z,98316.47
2022-11-22T01:36:44.174Z,98319.06
2022-11-22T01:39:11.387Z,98318.22
2022-11-22T01:41:38.625Z,98301.78
2022-11-22T01:44:33.074Z,98302.88
2022-11-22T01:47:18.826Z,98308.75
2022-11-22T01:49:59.926Z,98288.69
2022-11-22T01:52:32.076Z,98287.84
2022-11-22T01:55:09.700Z,98281.00
2022-11-22T01:57:41.217Z,98274.88
2022-11-22T02:00:16.176Z,98270.38
2022-11-22T02:03:00.960Z,98260.00
2022-11-22T02:05:32.925Z,98255.56
2022-11-22T02:08:18.049Z,98247.72
2022-11-22T02:10:52.064Z,98240.75
2022-11-22T02:13:22.632Z,98239.94
2022-11-22T02:15:52.371Z,98229.50
2022-11-22T02:18:20.050Z,98221.63
2022-11-22T02:20:49.412Z,98212.88
2022-11-22T02:24:12.915Z,98205.94
2022-11-22T02:26:43.041Z,98202.50
2022-11-22T02:29:10.624Z,98194.59
2022-11-22T02:31:46.750Z,98195.44
2022-11-22T02:34:14.732Z,98195.44
2022-11-22T02:36:53.880Z,98183.25
2022-11-22T02:39:29.403Z,98179.84
2022-11-22T02:41:57.456Z,98181.56
2022-11-22T02:44:25.867Z,98175.41
2022-11-22T02:46:55.494Z,98165.03
2022-11-22T02:49:25.049Z,98164.16
2022-11-22T02:51:53.193Z,98165.88
2022-11-22T02:54:20.982Z,98162.31
2022-11-22T02:56:48.462Z,98158.78
2022-11-22T02:59:15.789Z,98152.81
2022-11-22T03:01:44.936Z,98141.47
2022-11-22T03:04:24.427Z,98140.78
2022-11-22T03:06:58.115Z,98132.91
2022-11-22T03:09:27.621Z,98131.16
2022-11-22T03:11:55.553Z,98126.88
2022-11-22T03:14:22.847Z,98114.78
2022-11-22T03:16:50.755Z,98114.78
2022-11-22T03:19:18.052Z,98106.09
2022-11-22T03:21:45.526Z,98111.22
2022-11-22T03:24:15.068Z,98105.25
2022-11-22T03:26:47.979Z,98100.97
2022-11-22T03:29:16.918Z,98099.16
2022-11-22T03:31:44.178Z,98093.00
2022-11-22T03:34:15.392Z,98092.09
2022-11-22T03:36:42.637Z,98086.91
2022-11-22T03:39:10.155Z,98080.84
2022-11-22T03:41:37.480Z,98087.81
2022-11-22T03:44:05.257Z,98081.72
2022-11-22T03:46:32.559Z,98084.31
2022-11-22T03:48:59.850Z,98092.94
2022-11-22T03:51:27.690Z,98096.53
2022-11-22T03:53:54.968Z,98093.06
2022-11-22T03:56:22.889Z,98097.28
2022-11-22T03:58:50.305Z,98107.69
2022-11-22T04:01:17.705Z,98105.03
2022-11-22T04:03:44.901Z,98103.31
2022-11-22T04:06:12.209Z,98096.38
2022-11-22T04:08:39.602Z,98099.78
2022-11-22T04:11:07.117Z,98092.88
2022-11-22T04:13:53.745Z,98091.94
2022-11-22T04:16:20.965Z,98088.47
2022-11-22T04:18:49.081Z,98094.53
2022-11-22T04:21:34.781Z,98087.69
2022-11-22T04:24:30.252Z,98097.13
2022-11-22T04:26:58.138Z,98096.19
2022-11-22T04:29:25.413Z,98089.22
2022-11-22T04:32:12.027Z,98094.41
2022-11-22T04:34:39.242Z,98087.22
2022-11-22T04:37:06.911Z,98107.03
2022-11-22T04:39:34.783Z,98095.50
2022-11-22T04:42:20.653Z,98094.47
2022-11-22T04:44:48.069Z,98093.38
2022-11-22T04:47:37.096Z,98091.47
2022-11-22T04:50:28.307Z,98092.28
2022-11-22T04:52:57.466Z,98085.28
2022-11-22T04:55:25.088Z,98093.00
2022-11-22T04:57:58.892Z,98086.09
2022-11-22T05:00:30.114Z,98094.78
2022-11-22T05:02:58.515Z,98094.66
2022-11-22T05:05:26.851Z,98084.16
2022-11-22T05:07:54.795Z,98082.41
2022-11-22T05:10:26.455Z,98079.75
2022-11-22T05:12:55.892Z,98083.13
2022-11-22T05:15:23.265Z,98081.50
2022-11-22T05:17:50.385Z,98081.44
2022-11-22T05:20:17.900Z,98072.75
2022-11-22T05:23:03.725Z,98073.66
2022-11-22T05:25:30.880Z,98078.00
2022-11-22T05:27:58.010Z,98086.63
2022-11-22T05:30:25.131Z,98084.03
2022-11-22T05:32:52.353Z,98082.28
2022-11-22T05:35:19.609Z,98082.28
2022-11-22T05:37:46.817Z,98089.22
2022-11-22T05:40:14.344Z,98077.22
2022-11-22T05:42:41.541Z,98084.16
2022-11-22T05:45:09.760Z,98076.31
2022-11-22T05:47:36.974Z,98080.72
2022-11-22T05:50:05.661Z,98081.56
2022-11-22T05:52:33.070Z,98079.88
2022-11-22T05:55:00.406Z,98085.16
2022-11-22T05:57:28.442Z,98091.16
2022-11-22T05:59:55.645Z,98085.16
2022-11-22T06:02:22.909Z,98079.81
2022-11-22T06:04:50.080Z,98083.38
2022-11-22T06:07:17.601Z,98080.72
2022-11-22T06:09:44.883Z,98075.53
2022-11-22T06:12:12.132Z,98073.78
2022-11-22T06:14:43.208Z,98074.78
2022-11-22T06:17:10.890Z,98066.97
2022-11-22T06:19:38.154Z,98066.13
2022-11-22T06:22:06.104Z,98064.34
2022-11-22T06:24:33.442Z,98054.78
2022-11-22T06:27:01.106Z,98053.16
2022-11-22T06:29:29.761Z,98043.72
2022-11-22T06:32:03.128Z,98046.25
2022-11-22T06:34:30.961Z,98037.59
2022-11-22T06:36:59.292Z,98031.56
2022-11-22T06:39:26.458Z,98023.84
2022-11-22T06:41:53.806Z,98022.09
2022-11-22T06:44:21.019Z,98016.84
2022-11-22T06:46:48.217Z,98015.06
2022-11-22T06:49:15.341Z,98013.41
2022-11-22T06:51:42.559Z,98021.13
2022-11-22T06:54:12.932Z,98017.72
2022-11-22T06:56:41.506Z,98020.38
2022-11-22T06:59:09.940Z,98020.38
2022-11-22T07:01:38.525Z,98022.13
2022-11-22T07:04:06.073Z,98011.75
2022-11-22T07:06:38.656Z,98016.94
2022-11-22T07:09:11.641Z,98013.53
2022-11-22T07:11:41.566Z,98014.47
2022-11-22T07:14:09.602Z,98017.97
2022-11-22T07:16:38.790Z,98018.03
2022-11-22T07:19:07.203Z,98014.66
2022-11-22T07:21:37.256Z,98015.53
2022-11-22T07:24:06.888Z,98011.28
2022-11-22T07:26:34.184Z,98010.47
2022-11-22T07:29:01.326Z,98003.50
2022-11-22T07:31:28.723Z,98000.91
2022-11-22T07:33:57.972Z,97998.19
2022-11-22T07:36:28.604Z,97994.06
2022-11-22T07:38:56.515Z,97994.19
2022-11-22T07:41:23.867Z,97982.97
2022-11-22T07:43:52.982Z,97979.41
2022-11-22T07:46:30.942Z,97980.44
2022-11-22T07:49:00.988Z,97974.34
2022-11-22T07:51:28.583Z,97973.59
2022-11-22T07:53:56.804Z,97970.16
2022-11-22T07:56:24.494Z,97965.75
2022-11-22T07:58:52.160Z,97959.66
2022-11-22T08:01:20.898Z,97953.69
2022-11-22T08:03:48.541Z,97946.81
2022-11-22T08:06:16.451Z,97941.69
2022-11-22T08:08:44.244Z,97940.84
2022-11-22T08:11:12.572Z,97938.25
2022-11-22T08:13:40.169Z,97931.41
2022-11-22T08:16:16.195Z,97929.75
2022-11-22T08:18:49.248Z,97933.38
2022-11-22T08:21:19.167Z,97928.19
2022-11-22T08:23:48.340Z,97927.53
2022-11-22T08:26:18.572Z,97925.75
2022-11-22T08:28:45.740Z,97918.03
2022-11-22T08:31:19.629Z,97920.19
2022-11-22T08:33:48.323Z,97924.44
2022-11-22T08:36:15.658Z,97925.31
2022-11-22T08:38:42.980Z,97922.94
2022-11-22T08:41:11.308Z,97923.00
2022-11-22T08:43:38.569Z,97918.00
2022-11-22T08:46:07.273Z,97918.00
2022-11-22T08:48:37.115Z,97923.47
2022-11-22T08:51:11.151Z,97916.47
2022-11-22T08:53:42.670Z,97911.25
2022-11-22T08:56:16.589Z,97919.03
2022-11-22T08:58:44.189Z,97920.88
2022-11-22T09:01:19.504Z,97923.25
2022-11-22T09:03:47.263Z,97922.22
2022-11-22T09:11:54.918Z,97927.72
2022-11-22T09:14:22.251Z,97923.69
2022-11-22T09:16:49.622Z,97926.50
2022-11-22T09:19:16.977Z,97921.56
2022-11-22T09:21:44.195Z,97926.59
2022-11-22T09:24:11.443Z,97928.25
2022-11-22T09:26:38.649Z,97930.84
2022-11-22T09:29:07.256Z,97924.81
2022-11-22T09:31:34.432Z,97930.13
2022-11-22T09:34:01.632Z,97916.63
2022-11-22T09:36:28.998Z,97925.88
2022-11-22T09:38:56.937Z,97919.50
2022-11-22T09:42:05.127Z,97912.53
2022-11-22T09:45:30.356Z,97915.03
2022-11-22T09:48:43.477Z,97897.75
2022-11-22T09:51:18.595Z,97900.53
2022-11-22T09:54:05.180Z,97898.03
2022-11-22T09:56:34.108Z,97896.25
2022-11-22T09:59:16.829Z,97895.44
2022-11-22T10:02:19.461Z,97895.34
2022-11-22T10:05:26.704Z,97881.38
2022-11-22T10:08:25.785Z,97879.63
2022-11-22T10:10:55.949Z,97870.94
2022-11-22T10:13:45.704Z,97866.69
2022-11-22T10:16:42.049Z,97866.69
2022-11-22T10:19:26.212Z,97865.13
2022-11-22T10:21:53.387Z,97848.75
2022-11-22T10:24:20.568Z,97842.69
2022-11-22T10:26:47.910Z,97836.59
2022-11-22T10:29:18.220Z,97836.75
2022-11-22T10:32:28.675Z,97833.59
2022-11-22T10:36:20.151Z,97830.34
2022-11-22T10:39:52.380Z,97799.28
2022-11-22T10:43:04.447Z,97795.91
2022-11-22T10:45:44.437Z,97780.53
2022-11-22T10:48:46.624Z,97773.63
2022-11-22T10:51:52.039Z,97765.91
2022-11-22T10:55:02.878Z,97759.19
2022-11-22T10:58:29.094Z,97754.16
2022-11-22T11:01:53.892Z,97752.72
2022-11-22T11:04:23.770Z,97741.47
2022-11-22T11:07:11.456Z,97752.94
2022-11-22T11:10:11.600Z,97745.47
2022-11-22T11:13:06.387Z,97740.34
2022-11-22T11:15:59.548Z,97736.13
2022-11-22T11:18:43.778Z,97708.66
2022-11-22T11:21:14.464Z,97700.97
2022-11-22T11:23:42.694Z,97690.72
2022-11-22T11:26:33.796Z,97693.41
2022-11-22T11:29:19.122Z,97680.78
2022-11-22T11:32:05.688Z,97676.69
2022-11-22T11:34:33.747Z,97674.34
2022-11-22T11:37:04.151Z,97666.81
2022-11-22T11:39:37.591Z,97680.66
2022-11-22T11:42:33.582Z,97670.72
2022-11-22T11:45:29.970Z,97659.28
2022-11-22T11:47:57.396Z,97669.75
2022-11-22T11:50:30.729Z,97653.19
2022-11-22T11:53:06.802Z,97663.44
2022-11-22T11:55:36.895Z,97657.28
2022-11-22T11:58:23.877Z,97658.19
2022-11-22T12:00:51.912Z,97657.31
2022-11-22T12:03:23.424Z,97641.13
2022-11-22T12:06:14.396Z,97651.94
2022-11-22T12:08:41.936Z,97664.00
2022-11-22T12:11:24.313Z,97656.13
2022-11-22T12:14:19.650Z,97625.69
2022-11-22T12:16:50.835Z,97643.06
2022-11-22T12:19:44.927Z,97658.56
2022-11-22T12:22:49.512Z,97664.34
2022-11-22T12:25:38.140Z,97666.06
2022-11-22T12:28:25.128Z,97670.56
2022-11-22T12:31:14.811Z,97690.94
2022-11-22T12:33:50.191Z,97692.25
2022-11-22T12:36:48.104Z,97689.94
2022-11-22T12:39:25.534Z,97684.47
2022-11-22T12:42:29.815Z,97687.63
2022-11-22T12:45:17.219Z,97690.97
2022-11-22T12:47:47.568Z,97712.28
2022-11-22T12:50:41.041Z,97696.53
2022-11-22T12:53:33.886Z,97712.94
2022-11-22T12:56:10.183Z,97716.06
2022-11-22T12:58:59.718Z,97712.25
2022-11-22T13:01:40.101Z,97705.94
2022-11-22T13:04:10.291Z,97691.19
2022-11-22T13:06:56.352Z,97691.13
2022-11-22T13:09:38.726Z,97698.84
2022-11-22T13:12:14.823Z,97688.47
2022-11-22T13:14:50.001Z,97660.94
2022-11-22T13:17:18.078Z,97693.75
2022-11-22T13:20:08.620Z,97684.09
2022-11-22T13:23:38.517Z,97713.53
2022-11-22T13:26:30.769Z,97703.84
2022-11-22T13:29:25.604Z,97723.47
2022-11-22T13:32:16.592Z,97724.38
2022-11-22T13:35:13.934Z,97719.84
2022-11-22T13:37:50.463Z,97728.41
2022-11-22T13:40:27.395Z,97734.44
2022-11-22T13:43:17.961Z,97733.56
2022-11-22T13:46:01.676Z,97737.00
2022-11-22T13:48:40.906Z,97746.59
2022-11-22T13:52:06.480Z,97744.81
2022-11-22T13:54:47.516Z,97740.56
2022-11-22T13:57:37.040Z,97750.19
2022-11-22T14:00:15.826Z,97750.16
2022-11-22T14:03:08.505Z,97757.97
2022-11-22T14:05:41.781Z,97757.38
2022-11-22T14:08:42.275Z,97753.84
2022-11-22T14:11:24.240Z,97762.78
2022-11-22T14:14:21.272Z,97773.25
2022-11-22T14:17:06.668Z,97769.88
2022-11-22T14:20:02.927Z,97771.72
2022-11-22T14:22:52.092Z,97778.06
2022-11-22T14:26:26.662Z,97783.28
2022-11-22T14:29:11.472Z,97777.13
2022-11-22T14:31:39.799Z,97794.34
2022-11-22T14:34:28.619Z,97791.06
2022-11-22T14:37:11.180Z,97796.53
2022-11-22T14:40:08.061Z,97790.81
2022-11-22T14:42:47.304Z,97808.88
2022-11-22T14:45:48.753Z,97818.59
2022-11-22T14:48:28.615Z,97832.56
2022-11-22T14:51:04.216Z,97839.47
2022-11-22T14:53:49.492Z,97848.00
2022-11-22T14:56:27.090Z,97846.94
2022-11-22T15:00:03.693Z,97854.63
2022-11-22T15:03:06.559Z,97863.16
2022-11-22T15:09:22.731Z,97855.16
2022-11-22T15:09:46.873Z,97850.81
2022-11-22T15:12:51.789Z,97863.56
2022-11-22T15:57:37.237Z,97906.94
2022-11-22T16:00:21.547Z,97905.94
2022-11-22T16:02:53.853Z,97916.19
2022-11-22T16:06:08.488Z,97925.56
2022-11-22T16:08:32.196Z,97935.28
2022-11-22T16:11:00.453Z,97938.66
2022-11-22T16:13:35.080Z,97936.81
2022-11-22T16:16:11.082Z,97949.00
2022-11-22T16:18:40.302Z,97946.34
2022-11-22T16:21:11.197Z,97946.19
2022-11-22T16:23:41.023Z,97956.38
2022-11-22T16:26:31.631Z,97954.00
2022-11-22T16:29:36.918Z,97957.56
2022-11-22T16:32:11.006Z,97975.50
2022-11-22T16:34:38.494Z,97959.06
2022-11-22T16:37:37.825Z,97974.53
2022-11-22T16:40:07.267Z,97977.00
2022-11-22T16:42:41.115Z,97977.09
2022-11-22T16:45:18.962Z,97995.44
2022-11-22T16:47:54.610Z,97988.41
2022-11-22T16:50:33.886Z,97983.09
2022-11-22T16:53:02.914Z,98004.81
2022-11-22T16:55:30.295Z,98000.19
2022-11-22T16:57:58.195Z,97991.56
2022-11-22T17:00:25.399Z,97995.34
2022-11-22T17:02:52.565Z,98000.28
2022-11-22T17:05:19.799Z,98002.72
2022-11-22T17:07:46.996Z,97993.91
2022-11-22T17:10:14.766Z,98003.34
2022-11-22T17:12:43.116Z,98010.28
2022-11-22T17:15:16.226Z,98011.88
2022-11-22T17:17:43.459Z,98012.59
2022-11-22T17:20:11.135Z,98018.69
2022-11-22T17:22:40.549Z,98019.63
2022-11-22T17:25:18.331Z,98021.25
2022-11-22T17:27:48.040Z,98027.28
2022-11-22T17:30:18.686Z,98028.09
2022-11-22T17:32:45.814Z,98016.59
2022-11-22T17:35:13.067Z,98025.09
2022-11-22T17:37:40.173Z,98031.34
2022-11-22T17:40:09.460Z,98025.28
2022-11-22T17:42:40.916Z,98030.41
2022-11-22T17:45:08.885Z,98023.44
2022-11-22T17:47:35.999Z,98018.13
2022-11-22T17:50:03.558Z,98012.78
2022-11-22T17:52:30.848Z,98024.59
2022-11-22T17:55:03.532Z,98022.19
2022-11-22T17:57:32.364Z,98016.06
2022-11-22T17:59:59.635Z,98021.28
2022-11-22T18:02:26.841Z,98026.41
2022-11-22T18:04:55.644Z,98022.81
2022-11-22T18:07:23.971Z,98020.97
2022-11-22T18:09:51.778Z,98025.13
2022-11-22T18:12:19.088Z,98030.31
2022-11-22T18:14:47.341Z,98026.41
2022-11-22T18:17:14.993Z,98030.69
2022-11-22T18:19:42.374Z,98046.09
2022-11-22T18:22:10.234Z,98037.22
2022-11-22T18:24:37.415Z,98035.47
2022-11-22T18:27:04.554Z,98043.56
2022-11-22T18:29:46.881Z,98034.59
2022-11-22T18:32:14.052Z,98050.03
2022-11-22T18:34:41.684Z,98049.44
2022-11-22T18:37:09.336Z,98040.41
2022-11-22T18:39:39.414Z,98058.00
2022-11-22T18:42:14.665Z,98047.63
2022-11-22T18:44:41.886Z,98054.28
2022-11-22T18:47:09.720Z,98059.81
2022-11-22T18:49:37.251Z,98063.16
2022-11-22T18:52:05.038Z,98054.09
2022-11-22T18:54:32.711Z,98055.25
2022-11-22T18:57:00.864Z,98062.38
2022-11-22T18:59:28.168Z,98061.47
2022-11-22T19:01:55.548Z,98066.97
2022-11-22T19:04:22.846Z,98072.75
2022-11-22T19:06:50.179Z,98073.91
2022-11-22T19:09:17.479Z,98077.59
2022-11-22T19:11:44.743Z,98078.69
2022-11-22T19:14:12.038Z,98083.25
2022-11-22T19:16:39.231Z,98081.91
2022-11-22T19:19:08.117Z,98080.41
2022-11-22T19:21:35.348Z,98083.72
2022-11-22T19:24:02.490Z,98081.34
2022-11-22T19:26:29.656Z,98091.53
2022-11-22T19:28:59.599Z,98094.28
2022-11-22T19:31:29.340Z,98093.44
2022-11-22T19:33:58.489Z,98091.38
2022-11-22T19:36:32.640Z,98091.22
2022-11-22T19:39:04.158Z,98102.38
2022-11-22T19:41:32.419Z,98102.84
2022-11-22T19:44:00.208Z,98099.09
2022-11-22T19:46:28.862Z,98097.19
2022-11-22T19:48:58.855Z,98092.53
2022-11-22T19:51:29.356Z,98103.75
2022-11-22T19:54:04.315Z,98101.66
2022-11-22T19:56:37.897Z,98106.72
2022-11-22T19:59:07.837Z,98104.63
2022-11-22T20:01:35.667Z,98102.50
2022-11-22T20:04:06.460Z,98096.84
2022-11-22T20:06:36.363Z,98102.03
2022-11-22T20:09:11.708Z,98100.19
2022-11-22T20:11:41.154Z,98103.59
2022-11-22T20:14:09.774Z,98110.47
2022-11-22T20:16:42.773Z,98107.41
2022-11-22T20:19:12.168Z,98112.72
2022-11-22T20:21:40.152Z,98112.94
2022-11-22T20:24:08.206Z,98107.19
2022-11-22T20:26:36.389Z,98114.63
2022-11-22T20:29:07.936Z,98133.28
2022-11-22T20:31:38.320Z,98131.41
2022-11-22T20:34:06.672Z,98127.63
2022-11-22T20:36:35.644Z,98136.00
2022-11-22T20:39:09.761Z,98142.81
2022-11-22T20:41:39.354Z,98133.41
2022-11-22T20:44:09.349Z,98143.34
2022-11-22T20:46:37.767Z,98141.41
2022-11-22T20:49:05.011Z,98147.34
2022-11-22T20:51:35.889Z,98142.66
2022-11-22T20:54:03.414Z,98150.06
2022-11-22T20:56:30.628Z,98145.66
2022-11-22T20:58:57.895Z,98153.84
2022-11-22T21:01:28.440Z,98157.19
2022-11-22T21:03:55.974Z,98159.16
2022-11-22T21:06:27.542Z,98158.94
2022-11-22T21:08:55.810Z,98158.78
2022-11-22T21:11:27.699Z,98162.38
2022-11-22T21:13:57.992Z,98163.38
2022-11-22T21:16:30.026Z,98154.25
2022-11-22T21:19:04.915Z,98166.13
2022-11-22T21:21:35.947Z,98165.81
2022-11-22T21:24:06.292Z,98176.84
2022-11-22T21:26:34.605Z,98188.13
2022-11-22T21:29:04.133Z,98179.66
2022-11-22T21:31:31.415Z,98180.38
2022-11-22T21:33:58.666Z,98178.28
2022-11-22T21:36:26.319Z,98188.34
2022-11-22T21:38:53.595Z,98186.59
2022-11-22T21:44:10.811Z,98197.06
2022-11-22T21:46:38.593Z,98194.66
2022-11-22T21:49:06.270Z,98194.53
2022-11-22T21:51:33.494Z,98192.53
2022-11-22T21:54:02.522Z,98190.44
2022-11-22T21:56:30.201Z,98208.56
2022-11-22T21:58:57.726Z,98206.56
2022-11-22T22:01:25.961Z,98201.25
2022-11-22T22:03:53.909Z,98196.53
2022-11-22T22:06:21.306Z,98204.88
2022-11-22T22:08:48.788Z,98211.81
2022-11-22T22:11:16.166Z,98220.59
2022-11-22T22:13:43.607Z,98221.44
2022-11-22T22:16:15.761Z,98224.78
2022-11-22T22:18:43.484Z,98224.13
2022-11-22T22:21:13.472Z,98232.69
2022-11-22T22:23:42.463Z,98225.88
2022-11-22T22:26:14.721Z,98235.66
2022-11-22T22:28:42.478Z,98232.84
2022-11-22T22:31:21.702Z,98228.09
2022-11-22T22:33:55.977Z,98238.59
2022-11-22T22:36:25.874Z,98232.13
2022-11-22T22:38:54.876Z,98241.75
2022-11-22T22:41:22.299Z,98246.78
2022-11-22T22:43:49.926Z,98250.44
2022-11-22T22:46:23.087Z,98256.00
2022-11-22T22:48:51.833Z,98255.47
2022-11-22T22:51:32.898Z,98267.72
2022-11-22T22:54:01.587Z,98265.97
2022-11-22T22:56:30.965Z,98275.50
2022-11-22T22:59:00.716Z,98277.25
2022-11-22T23:01:32.116Z,98278.97
2022-11-22T23:04:01.822Z,98283.84
2022-11-22T23:06:38.413Z,98277.66
2022-11-22T23:09:11.304Z,98300.59
2022-11-22T23:11:57.324Z,98286.13
2022-11-22T23:14:31.947Z,98298.66
2022-11-22T23:16:59.076Z,98301.75
2022-11-22T23:19:27.255Z,98298.84
2022-11-22T23:21:55.171Z,98307.69
2022-11-22T23:24:22.674Z,98314.34
2022-11-22T23:26:49.823Z,98318.84
2022-11-22T23:29:16.983Z,98318.84
2022-11-22T23:31:44.129Z,98326.53
2022-11-22T23:34:12.166Z,98329.75
2022-11-22T23:36:41.178Z,98329.03
2022-11-22T23:39:09.272Z,98332.59
2022-11-22T23:41:36.635Z,98329.28
2022-11-22T23:44:04.601Z,98325.69
2022-11-22T23:46:32.341Z,98325.91
2022-11-22T23:49:02.802Z,98322.84
2022-11-22T23:51:33.720Z,98323.59
2022-11-22T23:54:05.344Z,98322.53
2022-11-22T23:56:34.755Z,98321.63
2022-11-22T23:59:05.012Z,98328.41
